Time;durP1;ratioP1;P1;durP2;ratioP2;P2;SDS_P1;SDS_P2;PMS_P1;PMS_P2;Temp;Humidity;BMP_temperature;BMP_pressure;BME280_temperature;BME280_humidity;BME280_pressure;Samples;Min_cycle;Max_cycle;Signal;HPM_P1;HPM_P2
2023/02/02 00:00:42;;;;;;;6.57;6.07;;;;;;;2.48;65.46;100349.79;460822;115;922482;-69
2023/02/02 00:01:47;;;;;;;6.57;6.06;;;;;;;2.46;65.30;100346.41;465331;114;922867;-69
2023/02/02 00:02:50;;;;;;;5.50;5.07;;;;;;;2.45;65.24;100356.33;464874;114;922530;-69
2023/02/02 00:03:54;;;;;;;6.98;6.40;;;;;;;2.44;65.20;100348.42;463208;114;922844;-69
2023/02/02 00:04:57;;;;;;;6.44;5.94;;;;;;;2.44;65.17;100343.03;461670;114;922484;-69
2023/02/02 00:06:02;;;;;;;6.63;6.01;;;;;;;2.45;65.28;100350.11;460758;115;930563;-69
2023/02/02 00:07:06;;;;;;;6.62;6.12;;;;;;;2.46;65.22;100341.87;460558;115;922615;-69
2023/02/02 00:08:09;;;;;;;6.78;6.18;;;;;;;2.48;65.28;100347.09;462908;114;922895;-68
2023/02/02 00:09:14;;;;;;;6.99;6.49;;;;;;;2.48;65.10;100347.91;457429;116;922679;-68
2023/02/02 00:10:17;;;;;;;6.82;6.32;;;;;;;2.47;64.99;100345.41;461077;114;922642;-71
2023/02/02 00:11:20;;;;;;;6.93;6.29;;;;;;;2.46;64.97;100344.56;465578;114;922597;-69
2023/02/02 00:12:23;;;;;;;8.13;7.43;;;;;;;2.47;64.94;100340.03;461588;114;922514;-69
2023/02/02 00:13:26;;;;;;;7.81;7.21;;;;;;;2.46;64.95;100341.03;458976;114;922853;-69
2023/02/02 00:14:29;;;;;;;7.76;7.16;;;;;;;2.47;64.84;100342.72;462840;114;922439;-68
2023/02/02 00:15:32;;;;;;;8.54;7.88;;;;;;;2.47;64.74;100348.09;457639;113;922566;-69
2023/02/02 00:16:44;;;;;;;8.38;7.72;;;;;;;2.45;64.69;100348.27;459884;114;922511;-69
2023/02/02 00:17:47;;;;;;;8.86;8.18;;;;;;;2.45;64.51;100344.73;459876;114;922803;-70
2023/02/02 00:18:50;;;;;;;8.90;8.21;;;;;;;2.44;64.50;100345.73;463158;114;922394;-70
2023/02/02 00:19:52;;;;;;;10.20;9.37;;;;;;;2.41;64.46;100346.92;464572;114;922898;-69
2023/02/02 00:20:56;;;;;;;9.34;8.63;;;;;;;2.41;64.47;100348.77;461194;114;922530;-70
2023/02/02 00:21:59;;;;;;;9.89;9.11;;;;;;;2.40;64.45;100353.31;460216;114;922469;-69
2023/02/02 00:23:03;;;;;;;9.74;8.94;;;;;;;2.39;64.52;100351.62;463519;113;922645;-69
2023/02/02 00:24:07;;;;;;;9.04;8.34;;;;;;;2.38;64.57;100347.24;457471;115;922473;-69
2023/02/02 00:25:10;;;;;;;8.51;7.81;;;;;;;2.39;64.62;100350.77;460239;113;922892;-69
2023/02/02 00:26:14;;;;;;;8.09;7.42;;;;;;;2.40;64.65;100347.08;461987;113;922512;-69
2023/02/02 00:27:17;;;;;;;7.14;6.56;;;;;;;2.42;64.83;100347.77;462904;113;922506;-68
2023/02/02 00:28:20;;;;;;;7.24;6.71;;;;;;;2.44;64.73;100353.80;462430;113;930459;-69
2023/02/02 00:29:29;;;;;;;6.54;6.03;;;;;;;2.44;64.56;100343.88;465534;113;922555;-69
2023/02/02 00:30:32;;;;;;;7.58;7.01;;;;;;;2.42;64.47;100348.61;465205;113;922540;-69
2023/02/02 00:31:35;;;;;;;6.71;6.11;;;;;;;2.40;64.26;100344.39;463199;113;922867;-69
2023/02/02 00:32:39;;;;;;;6.04;5.64;;;;;;;2.38;64.29;100343.70;467002;113;922644;-69
2023/02/02 00:33:46;;;;;;;6.31;5.84;;;;;;;2.35;64.23;100341.37;466759;113;922385;-69
2023/02/02 00:34:49;;;;;;;7.21;6.63;;;;;;;2.33;64.11;100346.06;466343;113;922489;-70
2023/02/02 00:35:53;;;;;;;6.74;6.23;;;;;;;2.31;64.09;100343.56;465157;113;922567;-68
2023/02/02 00:36:56;;;;;;;6.51;6.01;;;;;;;2.29;64.13;100344.72;459726;113;922517;-69
2023/02/02 00:37:59;;;;;;;6.65;6.15;;;;;;;2.28;64.21;100340.34;462034;113;922504;-70
2023/02/02 00:39:02;;;;;;;6.53;6.03;;;;;;;2.25;64.16;100344.23;465549;113;922448;-70
2023/02/02 00:40:06;;;;;;;6.95;6.41;;;;;;;2.23;64.03;100345.39;466400;113;923097;-69
2023/02/02 00:41:09;;;;;;;6.46;6.04;;;;;;;2.20;64.12;100343.05;466617;113;922849;-68
2023/02/02 00:42:12;;;;;;;6.84;6.36;;;;;;;2.18;64.21;100348.58;463984;113;922530;-67
2023/02/02 00:43:15;;;;;;;6.50;6.10;;;;;;;2.17;64.18;100346.89;462461;113;922569;-69
2023/02/02 00:45:40;;;;;;;6.06;5.62;;;;;;;2.14;64.21;100346.40;466237;113;922800;-69
2023/02/02 00:46:43;;;;;;;5.98;5.58;;;;;;;2.09;64.19;100345.02;466444;113;922477;-69
2023/02/02 00:47:48;;;;;;;6.61;6.11;;;;;;;2.07;64.17;100344.38;466472;113;922586;-70
2023/02/02 00:48:51;;;;;;;6.63;6.20;;;;;;;2.04;64.17;100344.69;461335;113;923582;-70
2023/02/02 00:49:54;;;;;;;6.39;5.89;;;;;;;2.03;64.27;100350.25;459140;113;922793;-70
2023/02/02 00:50:57;;;;;;;6.31;5.83;;;;;;;2.02;64.21;100349.41;465218;113;922544;-68
2023/02/02 00:52:00;;;;;;;6.06;5.62;;;;;;;2.01;64.25;100342.34;467186;113;922811;-68
2023/02/02 00:53:03;;;;;;;6.09;5.56;;;;;;;1.99;64.25;100347.03;466055;113;922666;-69
2023/02/02 00:54:06;;;;;;;6.07;5.66;;;;;;;1.98;64.28;100345.37;457604;115;922585;-69
2023/02/02 00:55:11;;;;;;;6.36;5.75;;;;;;;1.97;64.28;100346.38;452703;113;923080;-70
2023/02/02 00:56:14;;;;;;;5.95;5.53;;;;;;;1.97;64.24;100345.53;467055;113;922452;-68
2023/02/02 00:57:17;;;;;;;6.22;5.78;;;;;;;1.96;64.16;100344.69;466899;113;930520;-69
2023/02/02 00:58:20;;;;;;;6.04;5.64;;;;;;;1.95;64.27;100353.75;466338;113;922788;-69
2023/02/02 00:59:23;;;;;;;5.92;5.42;;;;;;;1.94;64.21;100354.75;462960;113;922456;-69
2023/02/02 01:00:27;;;;;;;6.25;5.75;;;;;;;1.93;64.33;100358.44;460183;114;922587;-69
2023/02/02 01:01:30;;;;;;;6.44;5.94;;;;;;;1.92;64.29;100346.03;465253;114;922482;-70
2023/02/02 01:02:34;;;;;;;5.68;5.31;;;;;;;1.92;64.43;100353.25;465316;114;930444;-71
2023/02/02 01:03:37;;;;;;;6.10;5.62;;;;;;;1.91;64.44;100354.25;465172;114;922829;-70
2023/02/02 01:04:41;;;;;;;6.92;6.42;;;;;;;1.93;64.61;100352.25;461316;113;924300;-68
2023/02/02 01:05:44;;;;;;;5.85;5.39;;;;;;;1.94;64.58;100348.53;459111;113;922983;-68
2023/02/02 01:06:47;;;;;;;6.24;5.77;;;;;;;1.95;64.49;100347.53;465162;113;923096;-69
2023/02/02 01:07:50;;;;;;;6.70;6.20;;;;;;;1.94;64.36;100352.06;467363;112;922952;-69
2023/02/02 01:08:53;;;;;;;6.72;6.22;;;;;;;1.91;64.33;100351.56;468366;112;923057;-68
2023/02/02 01:09:56;;;;;;;5.86;5.46;;;;;;;1.89;64.40;100345.50;465908;113;922546;-69
2023/02/02 01:10:59;;;;;;;5.89;5.46;;;;;;;1.87;64.28;100350.22;463390;113;922966;-68
2023/02/02 01:12:02;;;;;;;5.97;5.58;;;;;;;1.84;64.34;100347.84;463998;113;922612;-69
2023/02/02 01:13:06;;;;;;;6.02;5.62;;;;;;;1.81;64.26;100345.50;466500;113;922519;-68
2023/02/02 01:14:10;;;;;;;5.95;5.49;;;;;;;1.76;64.06;100346.00;467143;113;922475;-70
2023/02/02 01:15:13;;;;;;;6.07;5.67;;;;;;;1.72;64.05;100347.30;463215;113;922579;-69
2023/02/02 01:16:16;;;;;;;6.02;5.56;;;;;;;1.68;64.22;100346.80;466932;113;922402;-69
2023/02/02 01:17:19;;;;;;;7.16;6.58;;;;;;;1.67;64.30;100346.95;452961;115;930799;-69
2023/02/02 01:18:23;;;;;;;6.70;6.20;;;;;;;1.67;64.40;100347.80;450836;115;922659;-69
2023/02/02 01:19:26;;;;;;;6.86;6.40;;;;;;;1.66;64.39;100354.17;465828;113;922444;-68
2023/02/02 01:20:30;;;;;;;6.95;6.45;;;;;;;1.66;64.53;100345.27;466670;113;922951;-70
2023/02/02 01:21:33;;;;;;;7.12;6.53;;;;;;;1.65;64.55;100343.61;461090;113;923059;-70
2023/02/02 01:22:37;;;;;;;6.58;6.08;;;;;;;1.65;64.67;100339.05;465385;113;922483;-69
2023/02/02 01:23:40;;;;;;;7.95;7.35;;;;;;;1.66;64.88;100337.20;458910;115;922943;-70
2023/02/02 01:24:43;;;;;;;7.37;6.81;;;;;;;1.68;64.90;100341.42;465203;113;922995;-69
2023/02/02 01:25:50;;;;;;;7.42;6.92;;;;;;;1.70;64.76;100343.12;462714;113;922723;-68
2023/02/02 01:26:53;;;;;;;7.76;7.24;;;;;;;1.68;64.77;100340.58;458363;115;922791;-69
2023/02/02 01:27:56;;;;;;;7.97;7.37;;;;;;;1.67;64.63;100339.73;459078;114;922754;-69
2023/02/02 01:28:59;;;;;;;8.34;7.74;;;;;;;1.65;64.64;100336.36;459370;114;922517;-69
2023/02/02 01:30:02;;;;;;;9.56;8.83;;;;;;;1.65;64.62;100340.92;458708;114;922858;-70
2023/02/02 01:31:15;;;;;;;8.87;8.24;;;;;;;1.62;64.67;100338.55;459847;114;922517;-68
2023/02/02 01:32:18;;;;;;;9.33;8.66;;;;;;;1.60;64.62;100345.92;454120;116;930543;-69
2023/02/02 01:33:22;;;;;;;10.03;9.21;;;;;;;1.58;64.73;100350.63;456129;114;922513;-70
2023/02/02 01:34:25;;;;;;;10.56;9.76;;;;;;;1.56;64.71;100341.88;462067;114;922485;-68
2023/02/02 01:35:28;;;;;;;9.92;9.16;;;;;;;1.54;64.79;100349.28;461629;114;930515;-69
2023/02/02 01:36:32;;;;;;;11.71;10.81;;;;;;;1.50;64.74;100345.22;460240;114;922543;-69
2023/02/02 01:37:35;;;;;;;10.71;9.91;;;;;;;1.45;64.91;100350.23;454336;117;922709;-69
2023/02/02 01:38:39;;;;;;;10.49;9.73;;;;;;;1.43;64.93;100352.27;458302;114;922483;-68
2023/02/02 01:39:42;;;;;;;10.96;10.06;;;;;;;1.41;65.02;100354.25;458479;114;922481;-69
2023/02/02 01:40:53;;;;;;;11.36;10.46;;;;;;;1.36;65.14;100352.06;459149;115;930526;-69
2023/02/02 01:41:56;;;;;;;10.93;10.12;;;;;;;1.33;65.17;100351.52;457749;114;922908;-69
2023/02/02 01:42:59;;;;;;;10.15;9.39;;;;;;;1.29;65.20;100352.85;459145;114;922510;-68
2023/02/02 01:44:05;;;;;;;10.43;9.63;;;;;;;1.26;65.30;100359.41;458217;114;923512;-69
2023/02/02 01:45:17;;;;;;;10.47;9.66;;;;;;;1.25;65.50;100358.56;456298;115;922927;-69
2023/02/02 01:46:26;;;;;;;10.99;10.12;;;;;;;1.23;65.46;100357.87;460278;114;922713;-69
2023/02/02 01:47:38;;;;;;;10.51;9.64;;;;;;;1.20;65.49;100368.09;455426;114;922646;-70
2023/02/02 01:48:45;;;;;;;11.12;10.23;;;;;;;1.16;65.68;100359.50;462211;114;922520;-69
2023/02/02 01:49:48;;;;;;;10.54;9.69;;;;;;;1.13;65.80;100367.89;460384;114;922609;-69
2023/02/02 01:50:55;;;;;;;10.90;10.03;;;;;;;1.11;65.72;100364.51;462004;114;922907;-70
2023/02/02 01:52:00;;;;;;;10.25;9.42;;;;;;;1.07;65.72;100365.84;465926;113;922802;-69
2023/02/02 01:53:05;;;;;;;10.48;9.68;;;;;;;1.05;65.90;100364.30;459659;113;922450;-69
2023/02/02 01:54:11;;;;;;;9.41;8.77;;;;;;;1.02;66.10;100370.84;458491;115;930534;-68
2023/02/02 01:55:18;;;;;;;10.53;9.71;;;;;;;1.02;66.18;100368.16;451303;117;923707;-69
2023/02/02 01:56:27;;;;;;;10.24;9.45;;;;;;;1.02;66.26;100364.62;452369;116;922743;-68
2023/02/02 01:57:40;;;;;;;10.37;9.60;;;;;;;1.01;66.32;100362.94;457080;114;922866;-68
2023/02/02 01:58:44;;;;;;;10.44;9.64;;;;;;;1.00;66.30;100364.78;462198;114;922461;-69
2023/02/02 01:59:48;;;;;;;9.79;9.01;;;;;;;0.99;66.35;100362.28;456957;114;922701;-69
2023/02/02 02:00:52;;;;;;;10.68;9.88;;;;;;;0.98;66.38;100357.91;462100;114;922934;-69
2023/02/02 02:01:56;;;;;;;10.96;10.07;;;;;;;0.95;66.44;100359.05;457747;114;922888;-69
2023/02/02 02:03:05;;;;;;;10.71;9.89;;;;;;;0.94;66.50;100359.23;449219;118;922716;-70
2023/02/02 02:04:08;;;;;;;10.33;9.51;;;;;;;0.93;66.72;100350.33;452094;115;930487;-68
2023/02/02 02:05:15;;;;;;;10.70;9.75;;;;;;;0.94;66.69;100356.55;460207;115;922439;-68
2023/02/02 02:06:19;;;;;;;10.07;9.27;;;;;;;0.94;66.81;100351.17;460029;115;930563;-68
2023/02/02 02:07:22;;;;;;;9.97;9.11;;;;;;;0.97;67.05;100354.38;459889;114;922547;-69
2023/02/02 02:08:50;;;;;;;9.76;8.97;;;;;;;1.01;67.14;100354.88;462128;114;922392;-69
2023/02/02 02:09:54;;;;;;;9.72;8.94;;;;;;;1.03;67.24;100359.11;461765;114;922486;-69
2023/02/02 02:10:58;;;;;;;10.34;9.53;;;;;;;1.06;67.16;100358.78;462226;114;922674;-70
2023/02/02 02:12:01;;;;;;;10.89;10.09;;;;;;;1.08;67.10;100362.16;462257;114;930477;-69
2023/02/02 02:13:05;;;;;;;11.39;10.50;;;;;;;1.10;67.18;100354.77;459323;114;930427;-68
2023/02/02 02:17:18;;;;;;;5.86;5.46;;;;;;;1.16;66.96;100359.50;454310;114;922675;-70
2023/02/02 02:18:50;;;;;;;5.81;5.34;;;;;;;1.16;66.79;100362.19;454173;116;922714;-69
2023/02/02 02:26:35;;;;;;;8.63;7.93;;;;;;;1.15;66.87;100357.84;459350;114;922588;-70
2023/02/02 02:27:59;;;;;;;8.83;8.13;;;;;;;1.17;66.95;100365.71;462172;114;922934;-69
2023/02/02 02:29:10;;;;;;;9.13;8.40;;;;;;;1.17;67.04;100369.25;462200;114;922449;-70
2023/02/02 02:30:19;;;;;;;9.29;8.62;;;;;;;1.19;66.96;100369.09;461368;114;922643;-69
2023/02/02 02:31:49;;;;;;;8.67;7.97;;;;;;;1.20;66.88;100379.69;440661;120;923145;-69
2023/02/02 02:32:59;;;;;;;7.58;7.02;;;;;;;1.22;66.93;100372.29;460334;114;923008;-69
2023/02/02 02:34:13;;;;;;;8.48;7.81;;;;;;;1.35;67.12;100374.55;476810;110;947419;-69
2023/02/02 02:35:23;;;;;;;9.10;8.32;;;;;;;1.25;67.16;100377.36;436785;118;922666;-68
2023/02/02 02:36:36;;;;;;;8.72;7.98;;;;;;;1.29;67.10;100374.34;453784;116;922496;-69
2023/02/02 02:37:48;;;;;;;8.48;7.82;;;;;;;1.32;67.17;100379.41;449991;116;930543;-69
2023/02/02 02:39:05;;;;;;;8.45;7.69;;;;;;;1.34;67.10;100372.86;455737;116;922534;-69
2023/02/02 02:40:27;;;;;;;9.30;8.55;;;;;;;1.36;66.95;100370.02;455138;116;922535;-69
2023/02/02 02:41:31;;;;;;;;;;;;;;;1.39;66.87;100377.73;459318;116;922407;-69
2023/02/02 02:42:41;;;;;;;8.94;8.20;;;;;;;1.39;66.91;100378.59;455747;116;922372;-69
2023/02/02 02:43:48;;;;;;;8.63;7.83;;;;;;;1.40;66.87;100371.38;449896;117;922554;-70
2023/02/02 02:45:01;;;;;;;8.65;7.98;;;;;;;1.50;66.93;100377.45;467644;110;947196;-70
2023/02/02 02:46:06;;;;;;;8.93;8.19;;;;;;;1.38;66.85;100373.40;455679;116;922433;-70
2023/02/02 02:47:10;;;;;;;8.95;8.23;;;;;;;1.39;66.78;100372.37;460501;115;922430;-69
2023/02/02 02:48:13;;;;;;;8.98;8.26;;;;;;;1.38;66.75;100381.45;464977;114;922930;-68
2023/02/02 02:49:16;;;;;;;9.07;8.37;;;;;;;1.40;66.70;100379.43;464922;114;930531;-69
2023/02/02 02:50:21;;;;;;;9.16;8.37;;;;;;;1.42;66.81;100374.75;457743;115;922621;-69
2023/02/02 02:51:52;;;;;;;9.32;8.55;;;;;;;1.45;66.87;100374.41;457454;116;922679;-69
2023/02/02 02:53:01;;;;;;;8.19;7.48;;;;;;;1.48;66.97;100388.39;456864;115;922700;-68
2023/02/02 02:54:04;;;;;;;8.86;8.13;;;;;;;1.54;66.96;100378.84;450114;117;922992;-69
2023/02/02 02:55:10;;;;;;;8.77;8.10;;;;;;;1.56;67.10;100384.88;450559;116;923163;-69
2023/02/02 02:56:28;;;;;;;8.65;7.88;;;;;;;1.59;66.98;100382.72;457362;116;930459;-69
2023/02/02 02:57:54;;;;;;;8.21;7.53;;;;;;;1.61;66.92;100380.70;459763;115;922516;-70
2023/02/02 02:59:10;;;;;;;9.08;8.31;;;;;;;1.64;66.92;100383.08;456225;115;922547;-70
2023/02/02 03:00:22;;;;;;;9.03;8.22;;;;;;;1.67;66.98;100387.27;455480;115;922930;-70
2023/02/02 03:01:36;;;;;;;8.59;7.89;;;;;;;1.68;66.94;100381.73;457394;116;922555;-69
2023/02/02 03:03:10;;;;;;;10.00;9.19;;;;;;;1.70;66.81;100384.27;437670;121;922764;-70
2023/02/02 03:04:23;;;;;;;9.31;8.56;;;;;;;1.72;66.71;100382.24;451224;117;922537;-70
2023/02/02 03:05:44;;;;;;;8.88;8.18;;;;;;;1.72;66.74;100374.18;448616;115;922480;-69
2023/02/02 03:06:54;;;;;;;8.93;8.13;;;;;;;1.73;66.71;100375.03;457377;116;922985;-70
2023/02/02 03:08:03;;;;;;;9.74;8.94;;;;;;;1.75;66.65;100381.94;456507;115;922524;-69
2023/02/02 03:09:16;;;;;;;9.77;8.94;;;;;;;1.74;66.39;100379.41;460162;115;922508;-69
2023/02/02 03:10:23;;;;;;;9.83;8.99;;;;;;;1.73;66.29;100383.93;457391;115;922500;-70
2023/02/02 03:11:26;;;;;;;9.32;8.44;;;;;;;1.73;66.30;100380.40;457409;116;922484;-70
2023/02/02 03:12:29;;;;;;;10.43;9.49;;;;;;;1.72;66.12;100381.40;459933;115;922418;-69
2023/02/02 03:13:33;;;;;;;12.14;10.13;;;;;;;1.71;66.13;100385.93;461861;114;922454;-69
2023/02/02 03:14:36;;;;;;;10.06;9.23;;;;;;;1.70;66.02;100386.96;460081;114;922624;-70
2023/02/02 03:15:41;;;;;;;10.25;9.26;;;;;;;1.68;65.93;100387.11;457054;114;930407;-70
2023/02/02 03:16:44;;;;;;;10.19;9.39;;;;;;;1.69;65.96;100393.33;460784;115;922890;-69
2023/02/02 03:17:48;;;;;;;10.00;9.14;;;;;;;1.70;66.09;100386.96;461893;115;922539;-70
2023/02/02 03:18:51;;;;;;;9.95;9.12;;;;;;;1.72;66.16;100389.46;460536;115;922967;-70
2023/02/02 03:19:54;;;;;;;11.09;10.16;;;;;;;1.73;66.12;100386.63;455536;116;930473;-70
2023/02/02 03:20:58;;;;;;;10.68;9.73;;;;;;;1.74;65.97;100391.00;455839;116;922551;-69
2023/02/02 03:22:01;;;;;;;11.11;10.21;;;;;;;1.75;65.97;100391.84;455330;115;922463;-70
2023/02/02 03:23:04;;;;;;;12.03;10.93;;;;;;;1.75;65.88;100394.53;458047;114;927330;-69
2023/02/02 03:24:07;;;;;;;10.73;9.74;;;;;;;1.74;65.83;100395.53;457674;114;922523;-68
2023/02/02 03:25:10;;;;;;;11.00;9.99;;;;;;;1.74;65.74;100393.69;457589;114;922512;-69
2023/02/02 03:26:13;;;;;;;11.31;10.35;;;;;;;1.73;65.75;100394.69;457616;115;922959;-70
2023/02/02 03:27:16;;;;;;;11.76;10.75;;;;;;;1.72;65.69;100395.69;457492;115;922468;-70
2023/02/02 03:28:22;;;;;;;11.21;10.19;;;;;;;1.73;65.71;100400.06;457622;115;922455;-69
2023/02/02 03:29:25;;;;;;;10.62;9.76;;;;;;;1.75;65.86;100400.75;458701;115;923066;-68
2023/02/02 03:30:28;;;;;;;10.85;9.93;;;;;;;1.76;65.89;100397.06;458045;115;922572;-69
2023/02/02 03:31:31;;;;;;;10.99;10.02;;;;;;;1.80;66.00;100402.95;459722;115;922966;-69
2023/02/02 03:32:34;;;;;;;10.43;9.53;;;;;;;1.81;65.85;100405.48;461294;115;922895;-69
2023/02/02 03:33:37;;;;;;;10.10;9.29;;;;;;;1.81;65.80;100405.48;458660;115;922511;-68
2023/02/02 03:34:40;;;;;;;10.52;9.67;;;;;;;1.81;65.63;100405.48;461729;115;923273;-70
2023/02/02 03:35:43;;;;;;;10.73;9.79;;;;;;;1.80;65.46;100411.86;460817;115;930461;-69
2023/02/02 03:36:46;;;;;;;10.74;9.72;;;;;;;1.79;65.36;100406.63;457652;115;922582;-69
2023/02/02 03:37:49;;;;;;;10.70;9.78;;;;;;;1.78;65.33;100404.94;457657;115;922804;-69
2023/02/02 03:38:52;;;;;;;9.56;8.71;;;;;;;1.76;65.41;100401.59;458308;114;922468;-70
2023/02/02 03:39:55;;;;;;;10.32;9.34;;;;;;;1.75;65.41;100399.91;459109;114;922578;-69
2023/02/02 03:40:58;;;;;;;10.77;9.77;;;;;;;1.76;65.43;100405.12;458146;115;922487;-70
2023/02/02 03:42:01;;;;;;;10.61;9.59;;;;;;;1.74;65.37;100403.59;455919;116;922575;-70
2023/02/02 03:43:05;;;;;;;10.26;9.31;;;;;;;1.75;65.29;100411.50;457091;115;922523;-69
2023/02/02 03:44:08;;;;;;;11.91;10.82;;;;;;;1.74;65.16;100411.66;461925;115;922863;-70
2023/02/02 03:45:11;;;;;;;11.11;10.11;;;;;;;1.73;65.18;100409.97;461684;115;922367;-70
2023/02/02 03:46:14;;;;;;;10.54;9.54;;;;;;;1.73;65.18;100412.66;461825;115;922500;-70
2023/02/02 03:47:17;;;;;;;10.93;9.99;;;;;;;1.72;65.21;100414.50;459981;115;922836;-70
2023/02/02 03:48:20;;;;;;;11.62;10.57;;;;;;;1.71;65.17;100412.80;455903;116;922835;-68
2023/02/02 03:49:23;;;;;;;11.43;10.43;;;;;;;1.71;65.07;100420.87;456679;114;922979;-70
2023/02/02 03:50:26;;;;;;;11.25;10.16;;;;;;;1.72;65.12;100422.56;457614;115;922596;-70
2023/02/02 03:51:29;;;;;;;11.71;10.61;;;;;;;1.71;65.15;100420.05;457642;116;922511;-70
2023/02/02 03:52:32;;;;;;;11.42;10.41;;;;;;;1.72;65.20;100417.19;457608;115;922649;-69
2023/02/02 03:53:35;;;;;;;11.74;10.69;;;;;;;1.74;65.45;100425.09;457614;116;922546;-69
2023/02/02 03:54:38;;;;;;;11.81;10.69;;;;;;;1.75;65.55;100422.25;457578;114;922874;-69
2023/02/02 03:55:41;;;;;;;11.97;10.87;;;;;;;1.78;65.44;100418.38;451663;114;922485;-69
2023/02/02 03:56:44;;;;;;;11.66;10.64;;;;;;;1.80;65.37;100422.61;462848;114;922535;-70
2023/02/02 03:57:47;;;;;;;10.96;9.99;;;;;;;1.81;65.43;100429.67;459589;114;922681;-68
2023/02/02 03:58:50;;;;;;;11.69;10.61;;;;;;;1.83;65.50;100424.11;455770;116;922959;-70
2023/02/02 03:59:53;;;;;;;12.12;10.94;;;;;;;1.83;65.36;100424.95;458222;115;922754;-69
2023/02/02 04:01:04;;;;;;;12.00;10.78;;;;;;;1.84;65.18;100431.17;461803;114;922486;-68
2023/02/02 04:02:07;;;;;;;11.62;10.62;;;;;;;1.82;65.07;100430.52;461432;115;922538;-70
2023/02/02 04:03:11;;;;;;;11.47;10.47;;;;;;;1.82;65.19;100427.83;461799;115;922799;-68
2023/02/02 04:04:14;;;;;;;12.33;11.18;;;;;;;1.83;65.35;100434.86;459789;114;923041;-69
2023/02/02 04:05:17;;;;;;;11.71;10.62;;;;;;;1.85;65.38;100435.55;457420;115;922557;-69
2023/02/02 04:06:20;;;;;;;12.96;11.83;;;;;;;1.86;65.40;100432.72;457537;115;922473;-68
2023/02/02 04:07:24;;;;;;;12.05;10.86;;;;;;;1.89;65.36;100436.91;459108;115;922919;-69
2023/02/02 04:08:27;;;;;;;12.23;11.12;;;;;;;1.91;65.50;100438.44;460063;115;930482;-69
2023/02/02 04:09:30;;;;;;;12.31;11.19;;;;;;;1.93;65.41;100435.59;457399;114;922835;-68
2023/02/02 04:10:33;;;;;;;12.11;10.93;;;;;;;1.94;65.25;100431.88;457464;115;922527;-67
2023/02/02 04:11:36;;;;;;;11.90;10.80;;;;;;;1.94;65.23;100432.72;457493;116;922462;-67
2023/02/02 04:12:40;;;;;;;13.03;11.79;;;;;;;1.95;65.24;100428.19;460094;114;922565;-69
2023/02/02 04:13:44;;;;;;;12.89;11.49;;;;;;;1.96;65.20;100432.56;461732;115;930294;-67
2023/02/02 04:14:46;;;;;;;12.29;11.09;;;;;;;1.97;65.13;100427.03;459652;115;922965;-68
2023/02/02 04:15:59;;;;;;;13.15;12.03;;;;;;;1.98;65.03;100434.11;457528;115;922502;-69
2023/02/02 04:17:03;;;;;;;13.07;11.86;;;;;;;1.97;64.96;100428.88;459842;115;922539;-67
2023/02/02 04:18:06;;;;;;;14.13;12.92;;;;;;;1.96;64.91;100421.81;459677;114;923129;-70
2023/02/02 04:19:09;;;;;;;12.58;11.43;;;;;;;1.94;64.86;100432.72;448918;118;923027;-68
2023/02/02 04:20:12;;;;;;;13.32;12.08;;;;;;;1.95;64.79;100430.88;457503;114;922462;-69
2023/02/02 04:21:15;;;;;;;12.84;11.66;;;;;;;1.92;64.65;100421.31;457539;116;922828;-69
2023/02/02 04:22:18;;;;;;;13.00;11.80;;;;;;;1.90;64.70;100417.93;459252;115;922438;-69
2023/02/02 04:23:21;;;;;;;12.69;11.66;;;;;;;1.89;64.65;100420.77;460200;115;922525;-69
2023/02/02 04:24:24;;;;;;;13.30;12.10;;;;;;;1.89;64.73;100426.15;460097;115;923175;-67
2023/02/02 04:25:27;;;;;;;13.40;12.26;;;;;;;1.87;64.54;100425.49;460558;115;923064;-70
2023/02/02 04:26:30;;;;;;;12.89;11.84;;;;;;;1.84;64.56;100420.42;461872;114;922619;-69
2023/02/02 04:27:33;;;;;;;13.31;12.14;;;;;;;1.82;64.46;100427.83;461743;115;922566;-69
2023/02/02 04:28:36;;;;;;;13.48;12.29;;;;;;;1.79;64.39;100420.07;460609;115;922857;-69
2023/02/02 04:29:39;;;;;;;12.64;11.64;;;;;;;1.76;64.29;100423.94;457427;114;922508;-69
2023/02/02 04:30:42;;;;;;;13.01;11.81;;;;;;;1.73;64.28;100432.31;456954;115;922661;-69
2023/02/02 04:31:45;;;;;;;13.36;12.13;;;;;;;1.71;64.24;100430.80;456012;115;922933;-68
2023/02/02 04:32:50;;;;;;;13.49;12.30;;;;;;;1.67;64.31;100424.89;457289;115;922527;-69
2023/02/02 04:33:53;;;;;;;13.11;11.91;;;;;;;1.66;64.40;100424.05;462642;114;922900;-69
2023/02/02 04:34:56;;;;;;;13.36;12.27;;;;;;;1.65;64.47;100427.73;458789;114;923110;-68
2023/02/02 04:35:59;;;;;;;13.39;12.19;;;;;;;1.66;64.65;100432.11;450421;114;922889;-69
2023/02/02 04:37:02;;;;;;;12.12;11.04;;;;;;;1.66;64.63;100434.80;451685;114;922602;-68
2023/02/02 04:38:05;;;;;;;12.15;11.14;;;;;;;1.67;64.64;100430.27;456195;115;922463;-69
2023/02/02 04:39:10;;;;;;;11.89;10.91;;;;;;;1.66;64.54;100442.02;460135;115;922864;-67
2023/02/02 04:40:13;;;;;;;11.27;10.37;;;;;;;1.65;64.61;100440.36;452531;114;922664;-69
2023/02/02 04:41:20;;;;;;;11.97;10.97;;;;;;;1.64;64.57;100435.98;449551;118;922584;-68
2023/02/02 04:42:23;;;;;;;11.96;10.97;;;;;;;1.63;64.72;100443.20;449449;118;922811;-69
2023/02/02 04:43:26;;;;;;;11.51;10.58;;;;;;;1.62;64.81;100438.81;456249;116;922521;-68
2023/02/02 04:44:29;;;;;;;12.06;10.82;;;;;;;1.63;64.77;100447.72;457471;114;922770;-69
2023/02/02 04:45:32;;;;;;;12.41;11.08;;;;;;;1.62;64.87;100443.34;457305;114;922480;-68
2023/02/02 04:46:35;;;;;;;11.88;10.88;;;;;;;1.61;64.80;100447.88;457641;115;922541;-69
2023/02/02 04:47:38;;;;;;;11.84;10.70;;;;;;;1.59;64.60;100443.69;457483;114;922441;-69
2023/02/02 04:48:41;;;;;;;12.29;11.22;;;;;;;1.57;64.83;100440.30;464173;114;922398;-69
2023/02/02 04:49:44;;;;;;;11.57;10.49;;;;;;;1.58;65.02;100448.21;462907;114;922647;-70
2023/02/02 04:50:47;;;;;;;11.93;10.83;;;;;;;1.60;65.15;100448.03;449846;117;922841;-69
2023/02/02 04:51:50;;;;;;;10.83;9.86;;;;;;;1.61;65.24;100445.19;453655;116;922543;-69
2023/02/02 04:52:52;;;;;;;11.29;10.32;;;;;;;1.61;65.18;100447.88;457635;115;922567;-69
2023/02/02 04:53:55;;;;;;;11.83;10.83;;;;;;;1.61;65.28;100450.56;457571;115;922820;-70
2023/02/02 04:54:59;;;;;;;11.35;10.38;;;;;;;1.64;65.35;100452.10;457364;114;922558;-69
2023/02/02 04:56:07;;;;;;;12.44;11.28;;;;;;;1.65;65.25;100448.41;449819;117;922608;-69
2023/02/02 04:57:10;;;;;;;10.89;9.97;;;;;;;1.65;65.16;100449.23;449674;118;922591;-69
2023/02/02 04:58:13;;;;;;;11.27;10.36;;;;;;;1.65;65.14;100446.55;449872;118;922513;-68
2023/02/02 04:59:16;;;;;;;11.66;10.66;;;;;;;1.67;65.27;100451.77;449802;116;922941;-69
2023/02/02 05:00:19;;;;;;;12.04;11.06;;;;;;;1.68;65.29;100451.61;450511;116;923061;-67
2023/02/02 05:01:22;;;;;;;11.16;10.11;;;;;;;1.70;65.28;100446.09;449710;117;922616;-69
2023/02/02 05:02:25;;;;;;;11.63;10.53;;;;;;;1.72;65.35;100453.97;456509;115;922545;-70
2023/02/02 05:03:28;;;;;;;11.53;10.39;;;;;;;1.75;65.46;100450.97;460322;115;922435;-68
2023/02/02 05:04:31;;;;;;;11.84;10.81;;;;;;;1.76;65.46;100440.07;459688;115;922486;-69
2023/02/02 05:05:34;;;;;;;11.56;10.25;;;;;;;1.79;65.41;100458.55;451708;115;922438;-69
2023/02/02 05:06:38;;;;;;;11.79;10.76;;;;;;;1.81;65.35;100464.61;457885;115;922481;-68
2023/02/02 05:07:41;;;;;;;11.90;10.90;;;;;;;1.83;65.36;100462.59;460454;115;922518;-69
2023/02/02 05:08:44;;;;;;;12.14;11.09;;;;;;;1.85;65.27;100465.13;460398;115;922632;-70
2023/02/02 05:09:47;;;;;;;11.52;10.55;;;;;;;1.85;65.22;100471.34;458967;115;923254;-69
2023/02/02 05:10:50;;;;;;;11.28;10.34;;;;;;;1.85;65.02;100467.81;453145;115;922652;-68
2023/02/02 05:11:53;;;;;;;11.58;10.57;;;;;;;1.85;65.15;100471.34;457601;116;922510;-69